Terminal Aerodrome Forecast
Issued by NWS Jackson, KY

Home | Current Version | Previous Version | Text Only | Print | Product List | Glossary On
Versions: 1 2 3 4 5 6 7 8 9 10 11 12 13 14 15 16 17 18
000
FTUS43 KJKL 192320
TAFJKL
TAF
KJKL 192320Z 2000/2024 VRB03KT 6SM -SHRA BKN030 OVC040
     FM200200 00000KT P6SM VCSH OVC040
     FM200500 16004KT 3SM -SHRA BR OVC015
     FM201200 20004KT P6SM VCSH BKN015=

USA.gov is the U.S. government's official web portal to all federal, state and local government web resources and services.